WC StCyr

Date de la prise de vue : 28/02/2021 04:06:16
Et voilĂ  le METAR et le TAF :
2021/02/28 03:00 LFPN 280300Z AUTO 04007KT 6000 NSC 03/01 Q1033
2021/02/27 21:12 TAF TAF LFPN 272105Z 2721/2803 CNL